createdAt,value
2018-02-19T00:00:55.958Z,39.90
2018-02-19T00:03:23.530Z,40.05
2018-02-19T00:05:51.078Z,43.07
2018-02-19T00:08:18.734Z,41.60
2018-02-19T00:10:46.263Z,34.40
2018-02-19T00:13:13.823Z,41.80
2018-02-19T00:15:41.366Z,31.77
2018-02-19T00:18:08.976Z,32.47
2018-02-19T00:20:36.515Z,36.87
2018-02-19T00:23:04.099Z,36.67
2018-02-19T00:25:31.639Z,30.63
2018-02-19T00:27:59.215Z,37.00
2018-02-19T00:30:26.889Z,34.03
2018-02-19T00:32:55.241Z,34.50
2018-02-19T00:35:22.815Z,32.93
2018-02-19T00:37:55.474Z,30.53
2018-02-19T00:40:23.014Z,32.30
2018-02-19T00:42:50.563Z,32.30
2018-02-19T00:45:18.872Z,38.90
2018-02-19T00:47:46.718Z,27.73
2018-02-19T00:50:15.105Z,29.03
2018-02-19T00:52:42.662Z,27.87
2018-02-19T00:55:10.311Z,29.30
2018-02-19T00:57:38.642Z,37.07
2018-02-19T01:00:06.185Z,28.35
2018-02-19T01:02:33.758Z,38.93
2018-02-19T01:05:01.303Z,33.40
2018-02-19T01:07:28.913Z,30.77
2018-02-19T01:09:56.447Z,30.80
2018-02-19T01:12:24.006Z,26.60
2018-02-19T01:14:51.542Z,32.87
2018-02-19T01:17:19.079Z,35.00
2018-02-19T01:19:46.644Z,30.13
2018-02-19T01:22:14.178Z,33.90
2018-02-19T01:24:42.508Z,33.57
2018-02-19T01:27:10.046Z,27.17
2018-02-19T01:29:37.607Z,31.93
2018-02-19T01:32:05.405Z,31.20
2018-02-19T01:34:32.969Z,25.17
2018-02-19T01:37:00.582Z,35.35
2018-02-19T01:39:29.350Z,27.23
2018-02-19T01:44:31.394Z,25.40
2018-02-19T01:46:59.241Z,34.47
2018-02-19T01:49:26.991Z,30.23
2018-02-19T01:51:54.571Z,28.03
2018-02-19T01:54:22.125Z,28.83
2018-02-19T01:56:49.716Z,27.40
2018-02-19T01:59:17.287Z,27.30
2018-02-19T02:01:44.822Z,25.27
2018-02-19T02:04:12.388Z,26.30
2018-02-19T02:06:39.925Z,25.97
2018-02-19T02:09:07.494Z,24.10
2018-02-19T02:11:35.030Z,23.50
2018-02-19T02:14:02.594Z,22.43
2018-02-19T02:16:30.134Z,25.57
2018-02-19T02:18:57.869Z,28.23
2018-02-19T02:21:25.405Z,22.50
2018-02-19T02:23:52.976Z,28.00
2018-02-19T02:26:20.527Z,26.13
2018-02-19T02:28:48.094Z,24.67
2018-02-19T02:31:15.638Z,27.57
2018-02-19T02:33:43.972Z,27.67
2018-02-19T02:36:11.598Z,27.05
2018-02-19T02:38:39.168Z,25.53
2018-02-19T02:41:06.717Z,24.08
2018-02-19T02:43:34.277Z,29.10
2018-02-19T02:46:01.823Z,24.73
2018-02-19T02:48:29.467Z,23.57
2018-02-19T02:50:57.011Z,24.83
2018-02-19T02:53:24.572Z,29.73
2018-02-19T02:55:52.106Z,26.63
2018-02-19T02:58:20.435Z,21.83
2018-02-19T03:00:47.983Z,26.27
2018-02-19T03:03:15.540Z,24.60
2018-02-19T03:05:43.371Z,24.17
2018-02-19T03:08:11.690Z,24.87
2018-02-19T03:10:39.283Z,24.00
2018-02-19T03:13:06.886Z,24.70
2018-02-19T03:15:34.424Z,25.90
2018-02-19T03:18:02.760Z,21.23
2018-02-19T03:20:30.298Z,29.43
2018-02-19T03:22:57.973Z,23.90
2018-02-19T03:25:25.510Z,27.30
2018-02-19T03:27:53.077Z,25.13
2018-02-19T03:30:20.641Z,20.47
2018-02-19T03:32:48.176Z,22.83
2018-02-19T03:35:16.501Z,23.23
2018-02-19T03:37:44.042Z,23.77
2018-02-19T03:40:11.747Z,23.57
2018-02-19T03:42:40.078Z,21.33
2018-02-19T03:45:07.701Z,24.33
2018-02-19T03:47:35.289Z,26.40
2018-02-19T03:50:02.868Z,25.83
2018-02-19T03:52:30.414Z,21.63
2018-02-19T03:54:57.990Z,32.60
2018-02-19T03:57:25.527Z,27.40
2018-02-19T03:59:53.094Z,25.13
2018-02-19T04:02:20.722Z,24.90
2018-02-19T04:04:48.290Z,27.37
2018-02-19T04:07:16.593Z,28.63
2018-02-19T04:09:44.164Z,27.48
2018-02-19T04:12:11.705Z,24.37
2018-02-19T04:14:39.271Z,23.80
2018-02-19T04:17:06.803Z,28.20
2018-02-19T04:19:35.222Z,22.73
2018-02-19T04:22:02.759Z,21.93
2018-02-19T04:24:31.086Z,22.10
2018-02-19T04:26:58.628Z,28.43
2018-02-19T04:29:26.189Z,22.73
2018-02-19T04:31:53.726Z,20.03
2018-02-19T04:34:21.290Z,26.03
2018-02-19T04:36:48.830Z,23.37
2018-02-19T04:39:17.151Z,25.50
2018-02-19T04:41:44.683Z,24.63
2018-02-19T04:44:13.046Z,18.47
2018-02-19T04:46:43.186Z,22.73
2018-02-19T04:49:10.747Z,22.97
2018-02-19T04:51:38.280Z,23.03
2018-02-19T04:54:06.613Z,24.37
2018-02-19T04:56:34.146Z,25.83
2018-02-19T04:59:01.707Z,27.40
2018-02-19T05:01:29.256Z,29.10
2018-02-19T05:03:56.817Z,24.87
2018-02-19T05:06:24.358Z,21.50
2018-02-19T05:08:52.695Z,27.23
2018-02-19T05:11:20.232Z,21.73
2018-02-19T05:13:47.806Z,30.90
2018-02-19T05:16:15.339Z,27.33
2018-02-19T05:18:42.879Z,22.97
2018-02-19T05:21:11.207Z,25.87
2018-02-19T05:23:38.749Z,27.93
2018-02-19T05:26:06.318Z,27.90
2018-02-19T05:28:33.853Z,21.40
2018-02-19T05:31:01.406Z,24.77
2018-02-19T05:33:28.938Z,20.17
2018-02-19T05:35:56.504Z,21.93
2018-02-19T05:38:24.812Z,25.73
2018-02-19T05:40:52.370Z,31.67
2018-02-19T05:43:19.915Z,19.57
2018-02-19T05:45:47.476Z,19.90
2018-02-19T05:48:15.766Z,24.27
2018-02-19T05:50:43.331Z,21.00
2018-02-19T05:53:10.858Z,24.33
2018-02-19T05:55:39.222Z,22.73
2018-02-19T05:58:06.762Z,27.20
2018-02-19T06:00:34.305Z,27.17
2018-02-19T06:03:01.859Z,22.00
2018-02-19T06:05:29.398Z,25.50
2018-02-19T06:07:56.962Z,21.20
2018-02-19T06:10:24.494Z,20.77
2018-02-19T06:12:52.831Z,25.60
2018-02-19T06:15:20.354Z,24.17
2018-02-19T06:17:47.913Z,27.30
2018-02-19T06:20:15.463Z,24.63
2018-02-19T06:22:43.794Z,25.53
2018-02-19T06:25:11.331Z,25.30
2018-02-19T06:27:38.886Z,24.97
2018-02-19T06:30:06.424Z,29.73
2018-02-19T06:54:06.536Z,26.70
2018-02-19T06:56:34.071Z,24.90
2018-02-19T06:59:01.622Z,28.70
2018-02-19T07:01:29.154Z,27.00
2018-02-19T07:03:57.493Z,25.63
2018-02-19T07:06:25.040Z,27.10
2018-02-19T07:08:52.594Z,28.90
2018-02-19T07:11:20.130Z,24.93
2018-02-19T07:13:47.690Z,25.80
2018-02-19T07:16:15.218Z,26.90
2018-02-19T07:18:42.770Z,33.33
2018-02-19T07:21:10.308Z,23.20
2018-02-19T07:23:37.850Z,24.80
2018-02-19T07:26:05.410Z,28.10
2018-02-19T07:28:32.951Z,23.20
2018-02-19T07:31:00.529Z,21.17
2018-02-19T07:33:28.066Z,25.33
2018-02-19T07:35:55.622Z,27.00
2018-02-19T07:38:23.159Z,26.00
2018-02-19T07:40:50.718Z,23.40
2018-02-19T07:43:18.250Z,22.70
2018-02-19T07:45:46.591Z,25.37
2018-02-19T07:48:14.134Z,27.17
2018-02-19T07:50:42.446Z,22.67
2018-02-19T07:53:09.976Z,23.53
2018-02-19T07:55:37.550Z,22.47
2018-02-19T07:58:05.078Z,25.30
2018-02-19T08:00:33.398Z,27.00
2018-02-19T08:03:00.922Z,26.87
2018-02-19T08:05:29.247Z,26.93
2018-02-19T08:07:56.770Z,27.80
2018-02-19T08:10:24.956Z,18.53
2018-02-19T08:12:52.857Z,25.63
2018-02-19T08:15:20.422Z,25.27
2018-02-19T08:17:47.959Z,24.20
2018-02-19T08:20:15.511Z,30.47
2018-02-19T08:22:43.043Z,30.83
2018-02-19T08:25:11.367Z,23.40
2018-02-19T08:27:38.898Z,25.40
2018-02-19T08:30:06.459Z,22.80
2018-02-19T08:32:33.993Z,33.10
2018-02-19T08:35:02.315Z,25.87
2018-02-19T08:37:29.854Z,35.70
2018-02-19T08:39:57.409Z,28.73
2018-02-19T08:42:24.948Z,26.77
2018-02-19T08:44:53.276Z,27.67
2018-02-19T08:47:20.862Z,31.27
2018-02-19T08:49:48.425Z,30.20
2018-02-19T08:52:15.959Z,28.53
2018-02-19T08:54:43.511Z,29.43
2018-02-19T08:57:11.054Z,27.80
2018-02-19T08:59:38.620Z,25.07
2018-02-19T09:02:06.167Z,26.90
2018-02-19T09:04:33.724Z,24.20
2018-02-19T09:07:01.258Z,28.20
2018-02-19T09:09:29.582Z,26.33
2018-02-19T09:11:57.112Z,26.53
2018-02-19T09:14:24.666Z,35.97
2018-02-19T09:16:52.962Z,29.27
2018-02-19T09:19:20.530Z,27.33
2018-02-19T09:21:48.063Z,28.23
2018-02-19T09:24:16.383Z,26.30
2018-02-19T09:26:43.922Z,27.43
2018-02-19T09:29:11.446Z,22.77
2018-02-19T09:31:38.994Z,23.20
2018-02-19T09:34:06.535Z,25.03
2018-02-19T09:36:34.088Z,25.27
2018-02-19T09:39:01.621Z,26.97
2018-02-19T09:41:29.175Z,32.33
2018-02-19T09:43:56.706Z,25.40
2018-02-19T09:46:25.029Z,22.80
2018-02-19T09:48:52.566Z,24.50
2018-02-19T09:51:20.124Z,27.30
2018-02-19T09:53:47.665Z,26.37
2018-02-19T09:56:15.987Z,32.17
2018-02-19T09:58:43.527Z,30.70
2018-02-19T10:01:11.086Z,24.47
2018-02-19T10:03:38.635Z,24.00
2018-02-19T10:06:06.195Z,21.70
2018-02-19T10:08:34.496Z,26.23
2018-02-19T10:11:02.057Z,27.93
2018-02-19T10:13:29.595Z,28.27
2018-02-19T10:15:57.158Z,28.03
2018-02-19T10:18:24.699Z,25.43
2018-02-19T10:20:53.021Z,26.37
2018-02-19T10:23:20.555Z,33.50
2018-02-19T10:25:48.111Z,28.17
2018-02-19T10:28:15.664Z,24.53
2018-02-19T10:30:43.234Z,30.43
2018-02-19T10:33:10.783Z,26.40
2018-02-19T10:35:39.111Z,29.07
2018-02-19T10:38:06.634Z,31.37
2018-02-19T10:40:34.194Z,30.17
2018-02-19T10:43:01.731Z,27.90
2018-02-19T10:45:30.058Z,30.43
2018-02-19T10:47:57.595Z,34.00
2018-02-19T10:50:25.147Z,30.20
2018-02-19T10:52:52.678Z,32.17
2018-02-19T10:55:20.236Z,28.30
2018-02-19T10:57:47.766Z,27.73
2018-02-19T11:00:15.325Z,26.63
2018-02-19T11:02:42.860Z,27.30
2018-02-19T11:05:10.423Z,28.63
2018-02-19T11:07:37.949Z,29.80
2018-02-19T11:10:06.285Z,37.83
2018-02-19T11:12:33.809Z,25.70
2018-02-19T11:15:01.366Z,30.10
2018-02-19T11:17:28.894Z,24.80
2018-02-19T11:19:57.227Z,27.20
2018-02-19T11:22:24.763Z,24.60
2018-02-19T11:24:52.322Z,25.20
2018-02-19T11:27:19.854Z,29.03
2018-02-19T11:29:48.191Z,31.37
2018-02-19T11:32:15.720Z,27.03
2018-02-19T11:34:43.286Z,23.60
2018-02-19T11:37:10.835Z,21.50
2018-02-19T11:39:38.373Z,29.03
2018-02-19T11:42:06.693Z,34.97
2018-02-19T11:44:34.235Z,27.43
2018-02-19T11:47:01.798Z,26.10
2018-02-19T11:49:29.330Z,25.50
2018-02-19T11:51:57.651Z,30.30
2018-02-19T11:54:25.186Z,29.90
2018-02-19T11:56:52.744Z,25.73
2018-02-19T11:59:20.288Z,27.20
2018-02-19T12:01:48.607Z,31.73
2018-02-19T12:04:16.144Z,29.00
2018-02-19T12:06:43.709Z,26.43
2018-02-19T12:09:11.240Z,33.80
2018-02-19T12:11:39.568Z,30.57
2018-02-19T12:14:07.127Z,29.77
2018-02-19T12:16:34.682Z,30.20
2018-02-19T12:19:02.215Z,27.23
2018-02-19T12:21:29.774Z,31.13
2018-02-19T12:23:58.066Z,35.33
2018-02-19T12:26:25.622Z,29.53
2018-02-19T12:28:53.157Z,33.70
2018-02-19T12:31:21.483Z,30.10
2018-02-19T12:33:49.022Z,27.10
2018-02-19T12:36:16.571Z,28.57
2018-02-19T12:38:44.106Z,31.30
2018-02-19T12:41:11.667Z,31.87
2018-02-19T12:43:39.974Z,37.97
2018-02-19T12:46:07.532Z,41.03
2018-02-19T12:48:35.071Z,28.97
2018-02-19T12:51:03.399Z,30.80
2018-02-19T12:53:30.936Z,29.30
2018-02-19T12:55:58.490Z,34.27
2018-02-19T12:58:26.040Z,31.53
2018-02-19T13:00:53.600Z,33.17
2018-02-19T13:03:21.140Z,35.03
2018-02-19T13:05:48.694Z,39.33
2018-02-19T13:08:16.231Z,28.60
2018-02-19T13:10:43.788Z,41.17
2018-02-19T13:13:11.327Z,38.03
2018-02-19T13:15:38.891Z,30.63
2018-02-19T13:18:06.430Z,32.60
2018-02-19T13:20:34.002Z,39.17
2018-02-19T13:23:01.536Z,37.90
2018-02-19T13:25:29.106Z,37.83
2018-02-19T13:27:56.638Z,33.00
2018-02-19T13:30:24.970Z,36.17
2018-02-19T13:32:52.500Z,33.50
2018-02-19T13:35:20.060Z,36.60
2018-02-19T13:37:47.597Z,32.57
2018-02-19T13:40:15.922Z,31.40
2018-02-19T13:42:43.454Z,27.00
2018-02-19T13:45:10.986Z,29.37
2018-02-19T13:47:38.546Z,31.37
2018-02-19T13:50:06.077Z,24.80
2018-02-19T13:52:33.641Z,26.90
2018-02-19T13:55:01.184Z,26.63
2018-02-19T13:57:28.735Z,24.83
2018-02-19T13:59:56.265Z,27.67
2018-02-19T14:02:23.830Z,35.17
2018-02-19T14:04:51.375Z,30.30
2018-02-19T14:07:19.691Z,33.23
2018-02-19T14:09:47.227Z,27.57
2018-02-19T14:12:14.778Z,29.00
2018-02-19T14:14:43.074Z,25.80
2018-02-19T14:17:10.639Z,28.27
2018-02-19T14:19:38.182Z,28.97
2018-02-19T14:22:05.748Z,30.17
2018-02-19T14:24:33.290Z,28.50
2018-02-19T14:27:01.619Z,27.50
2018-02-19T14:29:29.153Z,23.93
2018-02-19T14:31:56.702Z,28.50
2018-02-19T14:34:24.238Z,26.50
2018-02-19T14:36:52.569Z,28.43
2018-02-19T14:39:20.124Z,26.90
2018-02-19T14:41:47.687Z,24.27
2018-02-19T14:44:15.225Z,28.83
2018-02-19T14:46:42.791Z,28.90
2018-02-19T14:49:10.318Z,25.30
2018-02-19T14:51:38.638Z,22.43
2018-02-19T14:54:06.163Z,25.30
2018-02-19T14:56:34.495Z,25.83
2018-02-19T14:59:02.039Z,29.40
2018-02-19T15:01:29.591Z,22.93
2018-02-19T15:03:57.117Z,31.83
2018-02-19T15:06:25.435Z,26.07
2018-02-19T15:08:52.973Z,28.03
2018-02-19T15:11:20.533Z,24.87
2018-02-19T15:13:48.076Z,22.80
2018-02-19T15:16:16.410Z,26.37
2018-02-19T15:18:43.948Z,26.33
2018-02-19T15:21:11.512Z,25.67
2018-02-19T15:23:39.052Z,30.23
2018-02-19T15:26:06.614Z,25.77
2018-02-19T15:28:34.148Z,32.20
2018-02-19T15:31:02.471Z,25.50
2018-02-19T15:33:29.999Z,27.30
2018-02-19T15:35:57.559Z,28.63
2018-02-19T15:38:25.099Z,31.10
2018-02-19T15:40:53.422Z,29.13
2018-02-19T15:43:20.960Z,34.33
2018-02-19T15:45:48.518Z,26.97
2018-02-19T15:48:16.066Z,24.40
2018-02-19T15:50:44.384Z,26.10
2018-02-19T15:53:11.920Z,26.40
2018-02-19T15:55:39.442Z,30.97
2018-02-19T15:58:07.020Z,29.70
2018-02-19T16:00:35.342Z,29.23
2018-02-19T16:03:02.906Z,27.87
2018-02-19T16:05:30.477Z,27.30
2018-02-19T16:07:58.033Z,24.13
2018-02-19T16:10:25.567Z,22.40
2018-02-19T16:12:53.140Z,25.50
2018-02-19T16:15:20.680Z,23.90
2018-02-19T16:17:48.255Z,30.00
2018-02-19T16:20:15.807Z,22.40
2018-02-19T16:22:43.362Z,23.40
2018-02-19T16:25:10.895Z,24.20
2018-02-19T16:27:39.220Z,24.43
2018-02-19T16:30:06.746Z,23.20
2018-02-19T16:32:34.304Z,23.10
2018-02-19T16:35:01.852Z,26.00
2018-02-19T16:37:30.175Z,26.00
2018-02-19T16:39:57.712Z,23.00
2018-02-19T16:42:25.286Z,25.40
2018-02-19T16:44:52.818Z,26.47
2018-02-19T16:47:20.366Z,24.60
2018-02-19T16:49:48.668Z,28.87
2018-02-19T16:52:16.228Z,27.23
2018-02-19T16:54:43.767Z,28.50
2018-02-19T16:57:12.098Z,29.10
2018-02-19T16:59:39.636Z,25.60
2018-02-19T17:02:07.196Z,28.83
2018-02-19T17:04:34.725Z,27.27
2018-02-19T17:07:03.042Z,24.83
2018-02-19T17:09:30.576Z,27.20
2018-02-19T17:11:58.130Z,21.70
2018-02-19T17:14:25.669Z,28.90
2018-02-19T17:16:53.998Z,21.47
2018-02-19T17:19:21.531Z,27.00
2018-02-19T17:21:49.083Z,22.40
2018-02-19T17:24:17.370Z,26.70
2018-02-19T17:26:44.943Z,25.90
2018-02-19T17:29:12.494Z,27.63
2018-02-19T17:31:40.072Z,24.17
2018-02-19T17:34:07.615Z,23.20
2018-02-19T17:36:35.180Z,23.30
2018-02-19T17:39:02.710Z,27.90
2018-02-19T17:41:31.030Z,27.33
2018-02-19T17:43:58.631Z,23.47
2018-02-19T17:46:26.163Z,22.43
2018-02-19T17:48:53.743Z,25.50
2018-02-19T17:51:21.281Z,29.10
2018-02-19T17:53:48.838Z,28.30
2018-02-19T17:56:16.375Z,31.30
2018-02-19T17:58:43.927Z,29.87
2018-02-19T18:01:11.455Z,25.83
2018-02-19T18:03:39.782Z,28.43
2018-02-19T18:06:08.087Z,26.17
2018-02-19T18:08:35.645Z,28.03
2018-02-19T18:11:03.179Z,26.67
2018-02-19T18:13:30.726Z,25.93
2018-02-19T18:15:58.258Z,28.03
2018-02-19T18:18:26.582Z,31.83
2018-02-19T18:20:54.118Z,27.77
2018-02-19T18:23:21.680Z,35.90
2018-02-19T18:25:49.214Z,27.97
2018-02-19T18:28:17.543Z,31.83
2018-02-19T18:30:45.087Z,28.97
2018-02-19T18:33:13.414Z,26.03
2018-02-19T18:35:40.950Z,36.10
2018-02-19T18:38:08.508Z,30.33
2018-02-19T18:40:36.039Z,28.03
2018-02-19T18:43:03.600Z,29.43
2018-02-19T18:45:31.144Z,34.10
2018-02-19T18:47:58.703Z,29.33
2018-02-19T18:50:26.234Z,34.30
2018-02-19T18:52:54.569Z,37.83
2018-02-19T18:55:22.099Z,27.33
2018-02-19T18:57:49.671Z,32.70
2018-02-19T19:00:17.197Z,34.10
2018-02-19T19:02:45.518Z,32.00
2018-02-19T19:05:13.057Z,35.67
2018-02-19T19:07:52.494Z,31.73
2018-02-19T19:10:31.819Z,40.77
2018-02-19T19:13:00.176Z,33.70
2018-02-19T19:15:27.744Z,35.50
2018-02-19T19:17:55.278Z,34.90
2018-02-19T19:20:22.807Z,35.60
2018-02-19T19:22:50.363Z,38.60
2018-02-19T19:25:17.899Z,44.40
2018-02-19T19:27:46.218Z,37.97
2018-02-19T19:30:13.752Z,37.00
2018-02-19T19:32:41.301Z,35.43
2018-02-19T19:35:08.836Z,42.00
2018-02-19T19:37:37.161Z,35.23
2018-02-19T19:40:04.699Z,33.40
2018-02-19T19:42:32.265Z,40.63
2018-02-19T19:44:59.790Z,38.07
2018-02-19T19:47:27.354Z,40.87
2018-02-19T19:49:55.143Z,38.53
2018-02-19T19:52:22.734Z,36.10
2018-02-19T19:54:50.267Z,44.20
2018-02-19T19:57:17.831Z,43.23
2018-02-19T19:59:45.358Z,37.83
2018-02-19T20:02:13.687Z,36.17
2018-02-19T20:04:41.224Z,37.67
2018-02-19T20:07:08.783Z,35.80
2018-02-19T20:09:36.314Z,38.47
2018-02-19T20:12:04.638Z,44.80
2018-02-19T20:14:32.171Z,44.13
2018-02-19T20:16:59.711Z,45.87
2018-02-19T20:19:28.035Z,45.97
2018-02-19T20:21:55.575Z,45.60
2018-02-19T20:24:23.135Z,53.80
2018-02-19T20:26:50.678Z,47.20
2018-02-19T20:29:18.998Z,50.00
2018-02-19T20:31:46.535Z,42.90
2018-02-19T20:34:22.034Z,45.43
2018-02-19T20:36:49.570Z,46.00
2018-02-19T20:39:17.131Z,46.23
2018-02-19T20:41:44.667Z,42.57
2018-02-19T20:44:12.236Z,46.17
2018-02-19T20:46:39.776Z,43.80
2018-02-19T20:49:07.331Z,46.23
2018-02-19T20:51:34.863Z,49.07
2018-02-19T20:54:02.437Z,44.40
2018-02-19T20:56:30.738Z,49.80
2018-02-19T20:58:58.304Z,39.97
2018-02-19T21:01:25.834Z,44.50
2018-02-19T21:03:54.516Z,51.40
2018-02-19T21:06:22.129Z,55.57
2018-02-19T21:08:49.688Z,49.60
2018-02-19T21:11:17.223Z,51.63
2018-02-19T21:13:44.786Z,46.60
2018-02-19T21:16:12.314Z,44.07
2018-02-19T21:18:40.657Z,45.30
2018-02-19T21:21:08.187Z,46.53
2018-02-19T21:23:35.751Z,55.53
2018-02-19T21:26:03.278Z,45.83
2018-02-19T21:28:36.498Z,43.80
2018-02-19T21:31:04.030Z,47.03
2018-02-19T21:33:32.354Z,40.90
2018-02-19T21:35:59.894Z,41.00
2018-02-19T21:38:28.326Z,42.07
2018-02-19T21:40:55.859Z,42.97
2018-02-19T21:43:23.427Z,44.20
2018-02-19T21:45:50.956Z,44.00
2018-02-19T21:48:18.509Z,44.73
2018-02-19T21:50:46.042Z,41.33
2018-02-19T21:53:14.358Z,40.37
2018-02-19T21:55:41.954Z,44.53
2018-02-19T21:58:09.502Z,45.07
2018-02-19T22:00:37.035Z,42.47
2018-02-19T22:03:04.596Z,48.43
2018-02-19T22:05:32.122Z,44.23
2018-02-19T22:08:00.441Z,41.60
2018-02-19T22:10:28.234Z,44.00
2018-02-19T22:12:56.763Z,43.20
2018-02-19T22:15:24.329Z,48.57
2018-02-19T22:17:52.057Z,46.27
2018-02-19T22:20:19.589Z,45.17
2018-02-19T22:22:47.994Z,47.17
2018-02-19T22:25:15.525Z,46.77
2018-02-19T22:27:43.234Z,46.23
2018-02-19T22:30:11.547Z,42.77
2018-02-19T22:32:39.102Z,44.63
2018-02-19T22:35:06.637Z,42.63
2018-02-19T22:37:34.174Z,41.77
2018-02-19T22:40:01.735Z,46.43
2018-02-19T22:42:29.280Z,44.53
2018-02-19T22:44:56.839Z,45.80
2018-02-19T22:47:24.466Z,44.70
2018-02-19T22:49:52.022Z,45.97
2018-02-19T22:52:19.668Z,44.37
2018-02-19T22:54:47.571Z,46.53
2018-02-19T22:57:15.185Z,43.27
2018-02-19T22:59:43.535Z,39.37
2018-02-19T23:02:11.201Z,45.93
2018-02-19T23:04:38.811Z,41.60
2018-02-19T23:07:06.336Z,45.30
2018-02-19T23:09:34.975Z,39.47
2018-02-19T23:12:02.551Z,41.07
2018-02-19T23:14:30.104Z,40.93
2018-02-19T23:16:58.514Z,47.57
2018-02-19T23:19:26.072Z,37.47
2018-02-19T23:21:53.650Z,39.43
2018-02-19T23:24:21.247Z,50.87
2018-02-19T23:26:48.783Z,46.37
2018-02-19T23:29:16.342Z,44.93
2018-02-19T23:31:43.891Z,39.47
2018-02-19T23:34:12.216Z,38.63
2018-02-19T23:36:39.755Z,36.20
2018-02-19T23:39:07.315Z,45.60
2018-02-19T23:41:34.851Z,42.40
2018-02-19T23:44:02.409Z,40.47
2018-02-19T23:46:30.716Z,44.37
2018-02-19T23:48:58.279Z,51.30
2018-02-19T23:51:25.814Z,40.13
2018-02-19T23:53:53.374Z,43.90
2018-02-19T23:56:20.909Z,41.80
2018-02-19T23:58:49.243Z,40.37
